sensor_id;sensor_type;location;lat;lon;timestamp;P1;durP1;ratioP1;P2;durP2;ratioP2
13520;SDS011;6832;51.186;3.236;2022-11-20T00:01:40;32.53;;;15.30;;
13520;SDS011;6832;51.186;3.236;2022-11-20T00:04:12;21.20;;;12.03;;
13520;SDS011;6832;51.186;3.236;2022-11-20T00:06:42;25.30;;;12.80;;
13520;SDS011;6832;51.186;3.236;2022-11-20T00:09:13;28.40;;;13.53;;
13520;SDS011;6832;51.186;3.236;2022-11-20T00:11:44;23.50;;;11.67;;
13520;SDS011;6832;51.186;3.236;2022-11-20T00:14:17;22.67;;;12.37;;
13520;SDS011;6832;51.186;3.236;2022-11-20T00:16:45;24.73;;;13.23;;
13520;SDS011;6832;51.186;3.236;2022-11-20T00:21:46;28.27;;;13.63;;
13520;SDS011;6832;51.186;3.236;2022-11-20T00:24:16;24.97;;;13.10;;
13520;SDS011;6832;51.186;3.236;2022-11-20T00:26:46;24.50;;;12.60;;
13520;SDS011;6832;51.186;3.236;2022-11-20T00:29:14;22.10;;;12.97;;
13520;SDS011;6832;51.186;3.236;2022-11-20T00:34:26;26.60;;;13.43;;
13520;SDS011;6832;51.186;3.236;2022-11-20T00:36:56;26.37;;;13.77;;
13520;SDS011;6832;51.186;3.236;2022-11-20T00:39:26;27.30;;;14.33;;
13520;SDS011;6832;51.186;3.236;2022-11-20T00:42:01;28.33;;;14.30;;
13520;SDS011;6832;51.186;3.236;2022-11-20T00:44:29;30.47;;;13.90;;
13520;SDS011;6832;51.186;3.236;2022-11-20T00:46:56;29.13;;;15.30;;
13520;SDS011;6832;51.186;3.236;2022-11-20T00:49:25;27.63;;;13.97;;
13520;SDS011;6832;51.186;3.236;2022-11-20T00:51:55;26.50;;;15.13;;
13520;SDS011;6832;51.186;3.236;2022-11-20T00:54:30;29.10;;;15.33;;
13520;SDS011;6832;51.186;3.236;2022-11-20T00:57:05;27.23;;;14.63;;
13520;SDS011;6832;51.186;3.236;2022-11-20T00:59:33;33.27;;;16.50;;
13520;SDS011;6832;51.186;3.236;2022-11-20T01:02:01;28.00;;;15.23;;
13520;SDS011;6832;51.186;3.236;2022-11-20T01:04:30;30.27;;;16.17;;
13520;SDS011;6832;51.186;3.236;2022-11-20T01:07:01;35.00;;;16.93;;
13520;SDS011;6832;51.186;3.236;2022-11-20T01:09:28;35.43;;;18.70;;
13520;SDS011;6832;51.186;3.236;2022-11-20T01:11:56;36.87;;;17.43;;
13520;SDS011;6832;51.186;3.236;2022-11-20T01:14:27;24.97;;;15.27;;
13520;SDS011;6832;51.186;3.236;2022-11-20T01:16:54;29.13;;;15.23;;
13520;SDS011;6832;51.186;3.236;2022-11-20T01:19:25;33.77;;;16.43;;
13520;SDS011;6832;51.186;3.236;2022-11-20T01:21:55;29.53;;;14.97;;
13520;SDS011;6832;51.186;3.236;2022-11-20T01:24:26;34.27;;;16.60;;
13520;SDS011;6832;51.186;3.236;2022-11-20T01:27:06;27.07;;;14.10;;
13520;SDS011;6832;51.186;3.236;2022-11-20T01:29:38;31.50;;;16.20;;
13520;SDS011;6832;51.186;3.236;2022-11-20T01:32:09;30.03;;;15.40;;
13520;SDS011;6832;51.186;3.236;2022-11-20T01:34:39;27.13;;;14.57;;
13520;SDS011;6832;51.186;3.236;2022-11-20T01:37:12;24.37;;;14.17;;
13520;SDS011;6832;51.186;3.236;2022-11-20T01:39:40;29.47;;;15.97;;
13520;SDS011;6832;51.186;3.236;2022-11-20T01:42:12;30.53;;;16.27;;
13520;SDS011;6832;51.186;3.236;2022-11-20T01:45:01;34.17;;;15.50;;
13520;SDS011;6832;51.186;3.236;2022-11-20T01:47:46;31.73;;;15.70;;
13520;SDS011;6832;51.186;3.236;2022-11-20T01:50:19;29.80;;;15.70;;
13520;SDS011;6832;51.186;3.236;2022-11-20T01:52:51;28.33;;;15.50;;
13520;SDS011;6832;51.186;3.236;2022-11-20T01:55:25;28.10;;;14.77;;
13520;SDS011;6832;51.186;3.236;2022-11-20T01:57:55;28.07;;;16.10;;
13520;SDS011;6832;51.186;3.236;2022-11-20T02:00:31;30.60;;;15.33;;
13520;SDS011;6832;51.186;3.236;2022-11-20T02:03:00;36.37;;;16.80;;
13520;SDS011;6832;51.186;3.236;2022-11-20T02:05:32;30.60;;;16.73;;
13520;SDS011;6832;51.186;3.236;2022-11-20T02:08:06;31.47;;;17.90;;
13520;SDS011;6832;51.186;3.236;2022-11-20T02:10:35;25.67;;;14.67;;
13520;SDS011;6832;51.186;3.236;2022-11-20T02:13:05;29.20;;;15.57;;
13520;SDS011;6832;51.186;3.236;2022-11-20T02:15:53;29.23;;;16.23;;
13520;SDS011;6832;51.186;3.236;2022-11-20T02:18:25;30.07;;;16.13;;
13520;SDS011;6832;51.186;3.236;2022-11-20T02:20:53;29.93;;;16.30;;
13520;SDS011;6832;51.186;3.236;2022-11-20T02:23:31;35.33;;;17.27;;
13520;SDS011;6832;51.186;3.236;2022-11-20T02:26:09;31.67;;;16.50;;
13520;SDS011;6832;51.186;3.236;2022-11-20T02:28:40;28.47;;;15.63;;
13520;SDS011;6832;51.186;3.236;2022-11-20T02:31:08;28.33;;;16.10;;
13520;SDS011;6832;51.186;3.236;2022-11-20T02:33:35;26.23;;;14.77;;
13520;SDS011;6832;51.186;3.236;2022-11-20T02:36:06;27.73;;;15.33;;
13520;SDS011;6832;51.186;3.236;2022-11-20T02:38:37;30.13;;;16.20;;
13520;SDS011;6832;51.186;3.236;2022-11-20T02:41:07;26.30;;;16.43;;
13520;SDS011;6832;51.186;3.236;2022-11-20T02:43:37;29.70;;;16.27;;
13520;SDS011;6832;51.186;3.236;2022-11-20T02:46:14;25.07;;;15.73;;
13520;SDS011;6832;51.186;3.236;2022-11-20T02:48:45;33.40;;;17.13;;
13520;SDS011;6832;51.186;3.236;2022-11-20T02:51:12;36.30;;;18.53;;
13520;SDS011;6832;51.186;3.236;2022-11-20T02:53:42;31.30;;;16.00;;
13520;SDS011;6832;51.186;3.236;2022-11-20T02:56:10;27.10;;;15.53;;
13520;SDS011;6832;51.186;3.236;2022-11-20T02:58:42;30.10;;;16.27;;
13520;SDS011;6832;51.186;3.236;2022-11-20T03:01:14;31.60;;;16.73;;
13520;SDS011;6832;51.186;3.236;2022-11-20T03:03:47;42.83;;;18.57;;
13520;SDS011;6832;51.186;3.236;2022-11-20T03:06:22;29.27;;;15.57;;
13520;SDS011;6832;51.186;3.236;2022-11-20T03:08:53;29.23;;;15.73;;
13520;SDS011;6832;51.186;3.236;2022-11-20T03:11:26;25.70;;;15.17;;
13520;SDS011;6832;51.186;3.236;2022-11-20T03:13:54;28.50;;;15.37;;
13520;SDS011;6832;51.186;3.236;2022-11-20T03:16:28;26.70;;;14.93;;
13520;SDS011;6832;51.186;3.236;2022-11-20T03:18:58;30.27;;;16.83;;
13520;SDS011;6832;51.186;3.236;2022-11-20T03:21:28;33.97;;;15.63;;
13520;SDS011;6832;51.186;3.236;2022-11-20T03:24:00;27.23;;;15.30;;
13520;SDS011;6832;51.186;3.236;2022-11-20T03:26:36;26.17;;;15.13;;
13520;SDS011;6832;51.186;3.236;2022-11-20T03:29:03;28.87;;;15.67;;
13520;SDS011;6832;51.186;3.236;2022-11-20T03:31:32;34.63;;;17.67;;
13520;SDS011;6832;51.186;3.236;2022-11-20T03:34:04;31.60;;;15.80;;
13520;SDS011;6832;51.186;3.236;2022-11-20T03:36:33;34.97;;;17.43;;
13520;SDS011;6832;51.186;3.236;2022-11-20T03:39:09;32.43;;;16.83;;
13520;SDS011;6832;51.186;3.236;2022-11-20T03:41:39;31.70;;;17.07;;
13520;SDS011;6832;51.186;3.236;2022-11-20T03:44:09;29.43;;;16.80;;
13520;SDS011;6832;51.186;3.236;2022-11-20T03:46:40;32.37;;;16.60;;
13520;SDS011;6832;51.186;3.236;2022-11-20T03:49:08;31.57;;;15.83;;
13520;SDS011;6832;51.186;3.236;2022-11-20T03:51:37;39.60;;;19.53;;
13520;SDS011;6832;51.186;3.236;2022-11-20T03:54:06;31.20;;;16.77;;
13520;SDS011;6832;51.186;3.236;2022-11-20T03:57:07;33.27;;;19.00;;
13520;SDS011;6832;51.186;3.236;2022-11-20T03:59:38;31.40;;;16.57;;
13520;SDS011;6832;51.186;3.236;2022-11-20T04:02:08;34.60;;;17.83;;
13520;SDS011;6832;51.186;3.236;2022-11-20T04:04:36;36.60;;;18.97;;
13520;SDS011;6832;51.186;3.236;2022-11-20T04:07:04;35.43;;;18.50;;
13520;SDS011;6832;51.186;3.236;2022-11-20T04:09:33;32.23;;;18.30;;
13520;SDS011;6832;51.186;3.236;2022-11-20T04:12:00;34.23;;;17.07;;
13520;SDS011;6832;51.186;3.236;2022-11-20T04:14:30;29.83;;;17.33;;
13520;SDS011;6832;51.186;3.236;2022-11-20T04:17:04;35.40;;;18.47;;
13520;SDS011;6832;51.186;3.236;2022-11-20T04:19:38;33.63;;;18.10;;
13520;SDS011;6832;51.186;3.236;2022-11-20T04:24:51;30.40;;;18.17;;
13520;SDS011;6832;51.186;3.236;2022-11-20T04:27:21;39.00;;;18.80;;
13520;SDS011;6832;51.186;3.236;2022-11-20T04:29:50;36.27;;;18.27;;
13520;SDS011;6832;51.186;3.236;2022-11-20T04:32:22;32.17;;;16.97;;
13520;SDS011;6832;51.186;3.236;2022-11-20T04:34:51;43.53;;;19.83;;
13520;SDS011;6832;51.186;3.236;2022-11-20T04:37:18;32.13;;;17.87;;
13520;SDS011;6832;51.186;3.236;2022-11-20T04:39:45;46.47;;;21.43;;
13520;SDS011;6832;51.186;3.236;2022-11-20T04:42:15;31.77;;;18.57;;
13520;SDS011;6832;51.186;3.236;2022-11-20T04:44:57;30.70;;;17.57;;
13520;SDS011;6832;51.186;3.236;2022-11-20T04:47:24;39.70;;;20.37;;
13520;SDS011;6832;51.186;3.236;2022-11-20T04:49:52;38.40;;;19.97;;
13520;SDS011;6832;51.186;3.236;2022-11-20T04:52:22;46.30;;;21.60;;
13520;SDS011;6832;51.186;3.236;2022-11-20T04:54:52;48.47;;;22.37;;
13520;SDS011;6832;51.186;3.236;2022-11-20T04:57:21;41.50;;;20.50;;
13520;SDS011;6832;51.186;3.236;2022-11-20T04:59:48;41.53;;;20.83;;
13520;SDS011;6832;51.186;3.236;2022-11-20T05:02:19;45.67;;;20.80;;
13520;SDS011;6832;51.186;3.236;2022-11-20T05:04:47;46.97;;;21.37;;
13520;SDS011;6832;51.186;3.236;2022-11-20T05:07:17;46.97;;;23.17;;
13520;SDS011;6832;51.186;3.236;2022-11-20T05:09:44;45.03;;;22.50;;
13520;SDS011;6832;51.186;3.236;2022-11-20T05:12:12;44.53;;;22.83;;
13520;SDS011;6832;51.186;3.236;2022-11-20T05:14:43;48.67;;;23.53;;
13520;SDS011;6832;51.186;3.236;2022-11-20T05:17:11;43.23;;;22.20;;
13520;SDS011;6832;51.186;3.236;2022-11-20T05:19:41;47.00;;;21.90;;
13520;SDS011;6832;51.186;3.236;2022-11-20T05:22:09;43.90;;;21.57;;
13520;SDS011;6832;51.186;3.236;2022-11-20T05:24:38;54.07;;;24.00;;
13520;SDS011;6832;51.186;3.236;2022-11-20T05:27:05;53.63;;;23.67;;
13520;SDS011;6832;51.186;3.236;2022-11-20T05:29:32;51.47;;;23.80;;
13520;SDS011;6832;51.186;3.236;2022-11-20T05:32:03;52.33;;;24.43;;
13520;SDS011;6832;51.186;3.236;2022-11-20T05:34:36;46.00;;;22.27;;
13520;SDS011;6832;51.186;3.236;2022-11-20T05:37:07;54.40;;;23.90;;
13520;SDS011;6832;51.186;3.236;2022-11-20T05:39:46;56.73;;;25.10;;
13520;SDS011;6832;51.186;3.236;2022-11-20T05:42:15;53.27;;;24.83;;
13520;SDS011;6832;51.186;3.236;2022-11-20T05:44:59;54.93;;;23.17;;
13520;SDS011;6832;51.186;3.236;2022-11-20T05:47:27;55.63;;;24.80;;
13520;SDS011;6832;51.186;3.236;2022-11-20T05:50:02;53.70;;;25.20;;
13520;SDS011;6832;51.186;3.236;2022-11-20T05:52:33;54.13;;;25.13;;
13520;SDS011;6832;51.186;3.236;2022-11-20T05:55:02;51.87;;;25.13;;
13520;SDS011;6832;51.186;3.236;2022-11-20T05:57:32;50.33;;;24.47;;
13520;SDS011;6832;51.186;3.236;2022-11-20T06:00:01;46.50;;;21.97;;
13520;SDS011;6832;51.186;3.236;2022-11-20T06:02:31;48.03;;;22.47;;
13520;SDS011;6832;51.186;3.236;2022-11-20T06:10:08;46.23;;;21.63;;
13520;SDS011;6832;51.186;3.236;2022-11-20T06:12:39;42.37;;;21.70;;
13520;SDS011;6832;51.186;3.236;2022-11-20T06:15:07;41.27;;;20.13;;
13520;SDS011;6832;51.186;3.236;2022-11-20T06:17:41;47.07;;;21.53;;
13520;SDS011;6832;51.186;3.236;2022-11-20T06:20:10;38.10;;;19.50;;
13520;SDS011;6832;51.186;3.236;2022-11-20T06:22:40;44.23;;;19.53;;
13520;SDS011;6832;51.186;3.236;2022-11-20T06:25:07;40.50;;;19.37;;
13520;SDS011;6832;51.186;3.236;2022-11-20T06:27:35;32.93;;;16.43;;
13520;SDS011;6832;51.186;3.236;2022-11-20T06:30:06;37.80;;;17.93;;
13520;SDS011;6832;51.186;3.236;2022-11-20T06:32:35;41.20;;;18.97;;
13520;SDS011;6832;51.186;3.236;2022-11-20T06:35:03;35.13;;;16.53;;
13520;SDS011;6832;51.186;3.236;2022-11-20T06:37:35;37.73;;;17.00;;
13520;SDS011;6832;51.186;3.236;2022-11-20T06:40:05;31.63;;;16.47;;
13520;SDS011;6832;51.186;3.236;2022-11-20T06:42:40;35.67;;;17.10;;
13520;SDS011;6832;51.186;3.236;2022-11-20T06:45:11;40.33;;;18.17;;
13520;SDS011;6832;51.186;3.236;2022-11-20T06:47:43;43.57;;;17.40;;
13520;SDS011;6832;51.186;3.236;2022-11-20T06:50:19;36.43;;;16.30;;
13520;SDS011;6832;51.186;3.236;2022-11-20T06:52:47;31.53;;;16.23;;
13520;SDS011;6832;51.186;3.236;2022-11-20T06:55:22;33.50;;;16.83;;
13520;SDS011;6832;51.186;3.236;2022-11-20T06:57:59;35.70;;;17.23;;
13520;SDS011;6832;51.186;3.236;2022-11-20T07:00:29;33.10;;;15.83;;
13520;SDS011;6832;51.186;3.236;2022-11-20T07:03:02;35.13;;;17.00;;
13520;SDS011;6832;51.186;3.236;2022-11-20T07:05:31;37.60;;;17.47;;
13520;SDS011;6832;51.186;3.236;2022-11-20T07:07:59;37.57;;;16.53;;
13520;SDS011;6832;51.186;3.236;2022-11-20T07:10:28;32.97;;;16.47;;
13520;SDS011;6832;51.186;3.236;2022-11-20T07:12:55;38.37;;;17.17;;
13520;SDS011;6832;51.186;3.236;2022-11-20T07:15:26;38.77;;;17.63;;
13520;SDS011;6832;51.186;3.236;2022-11-20T07:17:55;36.90;;;17.57;;
13520;SDS011;6832;51.186;3.236;2022-11-20T07:20:26;31.10;;;15.27;;
13520;SDS011;6832;51.186;3.236;2022-11-20T07:22:59;41.10;;;18.37;;
13520;SDS011;6832;51.186;3.236;2022-11-20T07:25:28;42.87;;;17.87;;
13520;SDS011;6832;51.186;3.236;2022-11-20T07:27:56;36.90;;;16.97;;
13520;SDS011;6832;51.186;3.236;2022-11-20T07:30:24;38.87;;;17.30;;
13520;SDS011;6832;51.186;3.236;2022-11-20T07:32:53;42.73;;;19.67;;
13520;SDS011;6832;51.186;3.236;2022-11-20T07:35:22;34.77;;;16.13;;
13520;SDS011;6832;51.186;3.236;2022-11-20T07:37:51;43.13;;;18.93;;
13520;SDS011;6832;51.186;3.236;2022-11-20T07:40:18;36.37;;;17.13;;
13520;SDS011;6832;51.186;3.236;2022-11-20T07:42:50;36.07;;;17.73;;
13520;SDS011;6832;51.186;3.236;2022-11-20T07:45:22;39.20;;;17.90;;
13520;SDS011;6832;51.186;3.236;2022-11-20T07:47:50;36.83;;;17.90;;
13520;SDS011;6832;51.186;3.236;2022-11-20T07:50:18;43.10;;;18.67;;
13520;SDS011;6832;51.186;3.236;2022-11-20T07:52:48;37.00;;;18.30;;
13520;SDS011;6832;51.186;3.236;2022-11-20T07:55:18;34.27;;;17.87;;
13520;SDS011;6832;51.186;3.236;2022-11-20T07:57:46;41.63;;;18.57;;
13520;SDS011;6832;51.186;3.236;2022-11-20T08:00:22;37.13;;;18.50;;
13520;SDS011;6832;51.186;3.236;2022-11-20T08:02:53;34.37;;;16.70;;
13520;SDS011;6832;51.186;3.236;2022-11-20T08:05:24;35.90;;;17.83;;
13520;SDS011;6832;51.186;3.236;2022-11-20T08:07:51;35.83;;;17.30;;
13520;SDS011;6832;51.186;3.236;2022-11-20T08:10:25;31.87;;;15.77;;
13520;SDS011;6832;51.186;3.236;2022-11-20T08:13:00;32.47;;;17.40;;
13520;SDS011;6832;51.186;3.236;2022-11-20T08:15:47;33.60;;;17.10;;
13520;SDS011;6832;51.186;3.236;2022-11-20T08:18:16;36.97;;;16.50;;
13520;SDS011;6832;51.186;3.236;2022-11-20T08:20:46;33.47;;;16.27;;
13520;SDS011;6832;51.186;3.236;2022-11-20T08:23:13;27.33;;;14.60;;
13520;SDS011;6832;51.186;3.236;2022-11-20T08:25:43;35.20;;;16.10;;
13520;SDS011;6832;51.186;3.236;2022-11-20T08:28:19;36.00;;;17.03;;
13520;SDS011;6832;51.186;3.236;2022-11-20T08:30:47;36.77;;;17.17;;
13520;SDS011;6832;51.186;3.236;2022-11-20T08:33:23;35.77;;;16.60;;
13520;SDS011;6832;51.186;3.236;2022-11-20T08:35:58;34.10;;;17.40;;
13520;SDS011;6832;51.186;3.236;2022-11-20T08:41:21;35.70;;;16.83;;
13520;SDS011;6832;51.186;3.236;2022-11-20T08:44:07;31.13;;;16.40;;
13520;SDS011;6832;51.186;3.236;2022-11-20T08:46:42;32.00;;;15.47;;
13520;SDS011;6832;51.186;3.236;2022-11-20T08:49:22;30.83;;;15.53;;
13520;SDS011;6832;51.186;3.236;2022-11-20T08:51:53;36.90;;;17.60;;
13520;SDS011;6832;51.186;3.236;2022-11-20T08:54:21;39.03;;;16.73;;
13520;SDS011;6832;51.186;3.236;2022-11-20T08:56:51;28.67;;;15.67;;
13520;SDS011;6832;51.186;3.236;2022-11-20T08:59:29;28.37;;;15.13;;
13520;SDS011;6832;51.186;3.236;2022-11-20T09:01:59;32.67;;;15.80;;
13520;SDS011;6832;51.186;3.236;2022-11-20T09:04:32;25.40;;;14.83;;
13520;SDS011;6832;51.186;3.236;2022-11-20T09:07:00;31.67;;;16.77;;
13520;SDS011;6832;51.186;3.236;2022-11-20T09:09:31;38.43;;;17.43;;
13520;SDS011;6832;51.186;3.236;2022-11-20T09:11:59;37.80;;;16.07;;
13520;SDS011;6832;51.186;3.236;2022-11-20T09:14:34;37.77;;;17.80;;
13520;SDS011;6832;51.186;3.236;2022-11-20T09:17:01;35.53;;;16.43;;
13520;SDS011;6832;51.186;3.236;2022-11-20T09:19:28;40.57;;;17.93;;
13520;SDS011;6832;51.186;3.236;2022-11-20T09:21:55;28.77;;;16.03;;
13520;SDS011;6832;51.186;3.236;2022-11-20T09:24:23;29.10;;;14.80;;
13520;SDS011;6832;51.186;3.236;2022-11-20T09:26:50;29.50;;;15.03;;
13520;SDS011;6832;51.186;3.236;2022-11-20T09:29:21;28.87;;;14.80;;
13520;SDS011;6832;51.186;3.236;2022-11-20T09:31:50;40.97;;;17.10;;
13520;SDS011;6832;51.186;3.236;2022-11-20T09:34:17;28.40;;;14.60;;
13520;SDS011;6832;51.186;3.236;2022-11-20T09:36:44;32.07;;;15.77;;
13520;SDS011;6832;51.186;3.236;2022-11-20T09:39:13;31.03;;;15.93;;
13520;SDS011;6832;51.186;3.236;2022-11-20T09:41:47;28.70;;;13.57;;
13520;SDS011;6832;51.186;3.236;2022-11-20T09:44:30;27.83;;;14.07;;
13520;SDS011;6832;51.186;3.236;2022-11-20T09:47:16;25.03;;;14.20;;
13520;SDS011;6832;51.186;3.236;2022-11-20T09:49:58;30.93;;;14.67;;
13520;SDS011;6832;51.186;3.236;2022-11-20T09:52:37;24.17;;;13.37;;
13520;SDS011;6832;51.186;3.236;2022-11-20T09:55:11;26.43;;;12.90;;
13520;SDS011;6832;51.186;3.236;2022-11-20T09:57:44;27.83;;;12.83;;
13520;SDS011;6832;51.186;3.236;2022-11-20T10:00:15;28.27;;;12.60;;
13520;SDS011;6832;51.186;3.236;2022-11-20T10:02:47;25.77;;;12.53;;
13520;SDS011;6832;51.186;3.236;2022-11-20T10:05:21;23.83;;;12.87;;
13520;SDS011;6832;51.186;3.236;2022-11-20T10:07:53;22.00;;;11.80;;
13520;SDS011;6832;51.186;3.236;2022-11-20T10:10:37;28.03;;;12.97;;
13520;SDS011;6832;51.186;3.236;2022-11-20T10:13:17;26.43;;;13.47;;
13520;SDS011;6832;51.186;3.236;2022-11-20T10:15:58;24.27;;;12.10;;
13520;SDS011;6832;51.186;3.236;2022-11-20T10:18:42;18.97;;;10.40;;
13520;SDS011;6832;51.186;3.236;2022-11-20T10:21:23;18.10;;;10.67;;
13520;SDS011;6832;51.186;3.236;2022-11-20T10:27:01;26.27;;;11.53;;
13520;SDS011;6832;51.186;3.236;2022-11-20T10:29:41;18.77;;;9.67;;
13520;SDS011;6832;51.186;3.236;2022-11-20T10:32:14;22.00;;;10.87;;
13520;SDS011;6832;51.186;3.236;2022-11-20T10:34:46;15.60;;;8.70;;
13520;SDS011;6832;51.186;3.236;2022-11-20T10:37:21;25.37;;;10.73;;
13520;SDS011;6832;51.186;3.236;2022-11-20T10:39:54;21.03;;;9.87;;
13520;SDS011;6832;51.186;3.236;2022-11-20T10:42:31;21.53;;;8.50;;
13520;SDS011;6832;51.186;3.236;2022-11-20T10:45:11;14.67;;;7.17;;
13520;SDS011;6832;51.186;3.236;2022-11-20T10:47:48;15.80;;;7.83;;
13520;SDS011;6832;51.186;3.236;2022-11-20T10:50:19;18.80;;;8.57;;
13520;SDS011;6832;51.186;3.236;2022-11-20T10:52:51;13.67;;;6.43;;
13520;SDS011;6832;51.186;3.236;2022-11-20T10:55:31;12.93;;;6.07;;
13520;SDS011;6832;51.186;3.236;2022-11-20T10:58:08;11.53;;;5.50;;
13520;SDS011;6832;51.186;3.236;2022-11-20T11:00:45;13.10;;;5.10;;
13520;SDS011;6832;51.186;3.236;2022-11-20T11:03:20;12.90;;;4.93;;
13520;SDS011;6832;51.186;3.236;2022-11-20T11:05:54;9.70;;;4.73;;
13520;SDS011;6832;51.186;3.236;2022-11-20T11:08:29;16.67;;;6.27;;
13520;SDS011;6832;51.186;3.236;2022-11-20T11:11:02;12.10;;;4.93;;
13520;SDS011;6832;51.186;3.236;2022-11-20T11:13:41;14.13;;;5.03;;
13520;SDS011;6832;51.186;3.236;2022-11-20T11:16:16;9.07;;;3.80;;
13520;SDS011;6832;51.186;3.236;2022-11-20T11:18:48;11.13;;;4.57;;
13520;SDS011;6832;51.186;3.236;2022-11-20T11:21:24;7.37;;;3.43;;
13520;SDS011;6832;51.186;3.236;2022-11-20T11:23:59;12.07;;;4.67;;
13520;SDS011;6832;51.186;3.236;2022-11-20T11:26:29;9.00;;;4.00;;
13520;SDS011;6832;51.186;3.236;2022-11-20T11:28:58;11.00;;;3.77;;
13520;SDS011;6832;51.186;3.236;2022-11-20T11:31:29;9.47;;;3.70;;
13520;SDS011;6832;51.186;3.236;2022-11-20T11:34:11;12.47;;;4.17;;
13520;SDS011;6832;51.186;3.236;2022-11-20T11:36:54;9.57;;;4.17;;
13520;SDS011;6832;51.186;3.236;2022-11-20T11:39:32;7.70;;;3.53;;
13520;SDS011;6832;51.186;3.236;2022-11-20T11:42:07;11.07;;;4.23;;
13520;SDS011;6832;51.186;3.236;2022-11-20T11:44:48;6.80;;;3.23;;
13520;SDS011;6832;51.186;3.236;2022-11-20T11:47:43;6.00;;;3.17;;
13520;SDS011;6832;51.186;3.236;2022-11-20T11:50:14;11.67;;;4.13;;
13520;SDS011;6832;51.186;3.236;2022-11-20T11:52:48;8.83;;;4.20;;
13520;SDS011;6832;51.186;3.236;2022-11-20T11:55:25;15.37;;;5.90;;
13520;SDS011;6832;51.186;3.236;2022-11-20T11:58:04;12.37;;;4.87;;
13520;SDS011;6832;51.186;3.236;2022-11-20T12:00:45;11.20;;;4.57;;
13520;SDS011;6832;51.186;3.236;2022-11-20T12:03:22;12.63;;;5.20;;
13520;SDS011;6832;51.186;3.236;2022-11-20T12:05:59;13.30;;;4.93;;
13520;SDS011;6832;51.186;3.236;2022-11-20T12:08:43;10.73;;;4.53;;
13520;SDS011;6832;51.186;3.236;2022-11-20T12:11:16;9.57;;;3.97;;
13520;SDS011;6832;51.186;3.236;2022-11-20T12:13:50;10.07;;;4.37;;
13520;SDS011;6832;51.186;3.236;2022-11-20T12:16:28;10.93;;;4.83;;
13520;SDS011;6832;51.186;3.236;2022-11-20T12:19:01;10.97;;;4.77;;
13520;SDS011;6832;51.186;3.236;2022-11-20T12:21:35;12.97;;;5.33;;
13520;SDS011;6832;51.186;3.236;2022-11-20T12:30:21;13.13;;;5.70;;
13520;SDS011;6832;51.186;3.236;2022-11-20T12:33:04;10.80;;;4.50;;
13520;SDS011;6832;51.186;3.236;2022-11-20T12:36:00;9.10;;;4.63;;
13520;SDS011;6832;51.186;3.236;2022-11-20T12:38:50;11.03;;;4.23;;
13520;SDS011;6832;51.186;3.236;2022-11-20T12:44:38;6.97;;;3.77;;
13520;SDS011;6832;51.186;3.236;2022-11-20T12:47:44;10.50;;;4.80;;
13520;SDS011;6832;51.186;3.236;2022-11-20T12:50:34;12.47;;;5.67;;
13520;SDS011;6832;51.186;3.236;2022-11-20T12:53:10;10.00;;;4.60;;
13520;SDS011;6832;51.186;3.236;2022-11-20T12:55:47;11.50;;;5.43;;
13520;SDS011;6832;51.186;3.236;2022-11-20T12:58:22;9.63;;;4.23;;
13520;SDS011;6832;51.186;3.236;2022-11-20T13:00:55;12.37;;;5.77;;
13520;SDS011;6832;51.186;3.236;2022-11-20T13:06:16;11.33;;;5.00;;
13520;SDS011;6832;51.186;3.236;2022-11-20T13:08:48;6.23;;;3.70;;
13520;SDS011;6832;51.186;3.236;2022-11-20T13:11:21;7.20;;;4.17;;
13520;SDS011;6832;51.186;3.236;2022-11-20T13:16:57;14.07;;;5.47;;
13520;SDS011;6832;51.186;3.236;2022-11-20T13:19:28;7.00;;;3.53;;
13520;SDS011;6832;51.186;3.236;2022-11-20T13:21:57;6.67;;;3.57;;
13520;SDS011;6832;51.186;3.236;2022-11-20T13:24:26;10.13;;;4.47;;
13520;SDS011;6832;51.186;3.236;2022-11-20T13:27:02;9.13;;;4.13;;
13520;SDS011;6832;51.186;3.236;2022-11-20T13:29:35;8.47;;;4.00;;
13520;SDS011;6832;51.186;3.236;2022-11-20T13:32:06;8.93;;;4.47;;
13520;SDS011;6832;51.186;3.236;2022-11-20T13:34:50;8.13;;;3.90;;
13520;SDS011;6832;51.186;3.236;2022-11-20T13:37:24;9.07;;;4.47;;
13520;SDS011;6832;51.186;3.236;2022-11-20T13:40:04;13.20;;;5.23;;
13520;SDS011;6832;51.186;3.236;2022-11-20T13:42:38;13.27;;;5.80;;
13520;SDS011;6832;51.186;3.236;2022-11-20T13:45:23;14.37;;;5.20;;
13520;SDS011;6832;51.186;3.236;2022-11-20T13:47:53;8.57;;;4.37;;
13520;SDS011;6832;51.186;3.236;2022-11-20T13:50:21;11.73;;;5.17;;
13520;SDS011;6832;51.186;3.236;2022-11-20T13:53:07;12.37;;;5.13;;
13520;SDS011;6832;51.186;3.236;2022-11-20T13:55:49;8.17;;;4.20;;
13520;SDS011;6832;51.186;3.236;2022-11-20T13:58:36;14.20;;;5.40;;
13520;SDS011;6832;51.186;3.236;2022-11-20T14:01:20;10.10;;;4.20;;
13520;SDS011;6832;51.186;3.236;2022-11-20T14:03:52;12.37;;;4.60;;
13520;SDS011;6832;51.186;3.236;2022-11-20T14:06:23;8.13;;;3.80;;
13520;SDS011;6832;51.186;3.236;2022-11-20T14:08:53;9.30;;;3.67;;
13520;SDS011;6832;51.186;3.236;2022-11-20T14:11:22;11.00;;;3.90;;
13520;SDS011;6832;51.186;3.236;2022-11-20T14:16:24;10.43;;;3.50;;
13520;SDS011;6832;51.186;3.236;2022-11-20T14:18:55;8.03;;;3.53;;
13520;SDS011;6832;51.186;3.236;2022-11-20T14:21:32;8.40;;;3.50;;
13520;SDS011;6832;51.186;3.236;2022-11-20T14:24:05;10.97;;;3.43;;
13520;SDS011;6832;51.186;3.236;2022-11-20T14:26:34;10.40;;;3.80;;
13520;SDS011;6832;51.186;3.236;2022-11-20T14:29:03;11.00;;;2.97;;
13520;SDS011;6832;51.186;3.236;2022-11-20T14:31:32;11.23;;;3.53;;
13520;SDS011;6832;51.186;3.236;2022-11-20T14:34:13;11.37;;;3.73;;
13520;SDS011;6832;51.186;3.236;2022-11-20T14:36:43;19.97;;;6.10;;
13520;SDS011;6832;51.186;3.236;2022-11-20T14:39:11;22.00;;;7.90;;
13520;SDS011;6832;51.186;3.236;2022-11-20T14:41:49;16.17;;;5.00;;
13520;SDS011;6832;51.186;3.236;2022-11-20T14:44:17;15.60;;;4.57;;
13520;SDS011;6832;51.186;3.236;2022-11-20T14:46:50;14.20;;;3.87;;
13520;SDS011;6832;51.186;3.236;2022-11-20T14:49:18;15.73;;;4.63;;
13520;SDS011;6832;51.186;3.236;2022-11-20T14:51:47;16.30;;;4.80;;
13520;SDS011;6832;51.186;3.236;2022-11-20T14:54:26;13.33;;;4.33;;
13520;SDS011;6832;51.186;3.236;2022-11-20T14:56:56;13.13;;;4.50;;
13520;SDS011;6832;51.186;3.236;2022-11-20T14:59:24;12.70;;;4.23;;
13520;SDS011;6832;51.186;3.236;2022-11-20T15:01:58;17.13;;;4.37;;
13520;SDS011;6832;51.186;3.236;2022-11-20T15:04:27;13.53;;;3.73;;
13520;SDS011;6832;51.186;3.236;2022-11-20T15:06:57;19.13;;;4.60;;
13520;SDS011;6832;51.186;3.236;2022-11-20T15:09:26;22.50;;;5.00;;
13520;SDS011;6832;51.186;3.236;2022-11-20T15:11:55;21.83;;;4.57;;
13520;SDS011;6832;51.186;3.236;2022-11-20T15:14:24;18.23;;;4.77;;
13520;SDS011;6832;51.186;3.236;2022-11-20T15:16:53;15.13;;;4.33;;
13520;SDS011;6832;51.186;3.236;2022-11-20T15:19:23;14.33;;;4.13;;
13520;SDS011;6832;51.186;3.236;2022-11-20T15:21:51;14.63;;;4.03;;
13520;SDS011;6832;51.186;3.236;2022-11-20T15:24:19;15.80;;;4.73;;
13520;SDS011;6832;51.186;3.236;2022-11-20T15:26:49;19.23;;;5.87;;
13520;SDS011;6832;51.186;3.236;2022-11-20T15:29:21;17.50;;;5.07;;
13520;SDS011;6832;51.186;3.236;2022-11-20T15:31:51;16.87;;;5.00;;
13520;SDS011;6832;51.186;3.236;2022-11-20T15:34:19;16.40;;;4.97;;
13520;SDS011;6832;51.186;3.236;2022-11-20T15:36:48;20.47;;;8.73;;
13520;SDS011;6832;51.186;3.236;2022-11-20T15:39:15;24.00;;;7.67;;
13520;SDS011;6832;51.186;3.236;2022-11-20T15:41:43;15.07;;;6.43;;
13520;SDS011;6832;51.186;3.236;2022-11-20T15:44:10;24.83;;;6.33;;
13520;SDS011;6832;51.186;3.236;2022-11-20T15:46:40;15.47;;;5.73;;
13520;SDS011;6832;51.186;3.236;2022-11-20T15:49:11;19.37;;;7.20;;